createdAt,value
2019-04-11T00:01:04.105Z,6.45
2019-04-11T00:03:33.618Z,6.44
2019-04-11T00:06:03.400Z,6.43
2019-04-11T00:08:34.166Z,6.40
2019-04-11T00:11:04.448Z,6.41
2019-04-11T00:13:36.261Z,6.40
2019-04-11T00:16:06.795Z,6.37
2019-04-11T00:18:36.703Z,6.38
2019-04-11T00:21:06.793Z,6.39
2019-04-11T00:23:38.544Z,6.35
2019-04-11T00:26:08.428Z,6.35
2019-04-11T00:28:39.542Z,6.38
2019-04-11T00:31:09.066Z,6.36
2019-04-11T00:33:38.521Z,6.33
2019-04-11T00:36:08.370Z,6.32
2019-04-11T00:38:38.236Z,6.33
2019-04-11T00:41:08.018Z,6.30
2019-04-11T00:43:41.848Z,6.32
2019-04-11T00:46:09.919Z,6.30
2019-04-11T00:48:39.710Z,6.29
2019-04-11T00:51:09.855Z,6.24
2019-04-11T00:53:40.324Z,6.25
2019-04-11T00:56:10.893Z,6.26
2019-04-11T00:58:41.547Z,6.27
2019-04-11T01:01:12.848Z,6.29
2019-04-11T01:03:43.250Z,6.30
2019-04-11T01:06:14.193Z,6.29
2019-04-11T01:08:46.283Z,6.31
2019-04-11T01:11:16.117Z,6.32
2019-04-11T01:13:50.872Z,6.33
2019-04-11T01:16:24.811Z,6.33
2019-04-11T01:18:54.224Z,6.36
2019-04-11T01:21:24.317Z,6.36
2019-04-11T01:23:53.757Z,6.37
2019-04-11T01:26:23.349Z,6.40
2019-04-11T01:28:53.574Z,6.45
2019-04-11T01:31:25.264Z,6.43
2019-04-11T01:34:02.402Z,6.38
2019-04-11T01:36:33.195Z,6.38
2019-04-11T01:39:05.173Z,6.31
2019-04-11T01:41:34.668Z,6.26
2019-04-11T01:44:07.063Z,6.25
2019-04-11T01:46:35.348Z,6.22
2019-04-11T01:49:10.255Z,6.20
2019-04-11T01:51:40.096Z,6.17
2019-04-11T01:54:09.642Z,6.16
2019-04-11T01:56:39.216Z,6.17
2019-04-11T01:59:08.640Z,6.20
2019-04-11T02:01:39.707Z,6.22
2019-04-11T02:04:19.519Z,6.25
2019-04-11T02:06:49.978Z,6.26
2019-04-11T02:09:20.027Z,6.24
2019-04-11T02:11:49.980Z,6.19
2019-04-11T02:14:21.032Z,6.16
2019-04-11T02:16:52.027Z,6.14
2019-04-11T02:19:23.908Z,6.16
2019-04-11T02:21:55.083Z,6.19
2019-04-11T02:24:36.194Z,6.17
2019-04-11T02:27:13.089Z,6.15
2019-04-11T02:29:42.953Z,6.13
2019-04-11T02:32:12.838Z,6.10
2019-04-11T02:34:43.895Z,6.07
2019-04-11T02:37:13.511Z,6.02
2019-04-11T02:39:42.969Z,5.90
2019-04-11T02:42:12.473Z,5.81
2019-04-11T02:44:59.217Z,5.73
2019-04-11T02:47:18.502Z,5.66
2019-04-11T02:49:45.627Z,5.61
2019-04-11T02:52:17.549Z,5.56
2019-04-11T02:54:47.422Z,5.50
2019-04-11T02:57:18.483Z,5.45
2019-04-11T02:59:48.988Z,5.41
2019-04-11T03:02:19.544Z,5.36
2019-04-11T03:04:50.971Z,5.33
2019-04-11T03:07:22.570Z,5.34
2019-04-11T03:09:53.582Z,5.35
2019-04-11T03:12:24.063Z,5.36
2019-04-11T03:15:21.133Z,5.35
2019-04-11T03:17:34.249Z,5.36
2019-04-11T03:20:10.396Z,5.39
2019-04-11T03:22:32.230Z,5.40
2019-04-11T03:25:03.107Z,5.41
2019-04-11T03:27:34.924Z,5.39
2019-04-11T03:30:10.819Z,5.38
2019-04-11T03:33:25.383Z,5.36
2019-04-11T03:36:00.089Z,5.35
2019-04-11T03:38:03.642Z,5.33
2019-04-11T03:40:32.105Z,5.34
2019-04-11T03:42:59.939Z,5.34
2019-04-11T03:45:38.131Z,5.32
2019-04-11T03:48:02.207Z,5.31
2019-04-11T03:50:23.183Z,5.31
2019-04-11T03:52:51.958Z,5.24
2019-04-11T03:55:23.280Z,5.21
2019-04-11T03:57:55.966Z,5.14
2019-04-11T04:00:31.420Z,5.04
2019-04-11T04:02:57.959Z,4.98
2019-04-11T04:05:30.696Z,4.95
2019-04-11T04:08:01.755Z,4.94
2019-04-11T04:10:34.063Z,4.90
2019-04-11T04:13:05.395Z,4.89
2019-04-11T04:15:54.104Z,4.86
2019-04-11T04:18:16.540Z,4.85
2019-04-11T04:21:06.420Z,4.78
2019-04-11T04:23:38.025Z,4.76
2019-04-11T04:26:11.550Z,4.77
2019-04-11T04:28:40.771Z,4.78
2019-04-11T04:31:11.556Z,4.75
2019-04-11T04:33:42.824Z,4.74
2019-04-11T04:36:13.863Z,4.77
2019-04-11T04:38:44.561Z,4.74
2019-04-11T04:41:28.268Z,4.74
2019-04-11T04:43:48.101Z,4.77
2019-04-11T04:46:36.497Z,4.76
2019-04-11T04:48:51.081Z,4.77
2019-04-11T04:51:22.630Z,4.80
2019-04-11T04:53:52.145Z,4.79
2019-04-11T04:56:24.836Z,4.81
2019-04-11T04:58:54.062Z,4.82
2019-04-11T05:01:23.970Z,4.84
2019-04-11T05:03:54.105Z,4.87
2019-04-11T05:06:24.330Z,4.89
2019-04-11T05:08:56.026Z,4.90
2019-04-11T05:11:26.226Z,4.88
2019-04-11T05:13:56.710Z,4.92
2019-04-11T05:16:26.356Z,4.98
2019-04-11T05:18:56.665Z,5.05
2019-04-11T05:21:27.660Z,5.03
2019-04-11T05:23:58.513Z,5.06
2019-04-11T05:26:28.001Z,5.10
2019-04-11T05:28:57.470Z,5.09
2019-04-11T05:31:27.029Z,5.11
2019-04-11T05:33:56.734Z,5.16
2019-04-11T05:36:26.164Z,5.22
2019-04-11T05:38:55.578Z,5.26
2019-04-11T05:41:26.170Z,5.25
2019-04-11T05:43:55.827Z,5.28
2019-04-11T05:46:35.328Z,5.35
2019-04-11T05:49:01.053Z,5.38
2019-04-11T05:51:38.380Z,5.39
2019-04-11T05:54:07.422Z,5.41
2019-04-11T05:56:35.468Z,5.36
2019-04-11T05:59:07.395Z,5.40
2019-04-11T06:01:38.531Z,5.43
2019-04-11T06:04:15.389Z,5.44
2019-04-11T06:07:01.522Z,5.50
2019-04-11T06:09:36.018Z,5.54
2019-04-11T06:12:07.606Z,5.52
2019-04-11T06:14:39.728Z,5.58
2019-04-11T06:17:11.416Z,5.53
2019-04-11T06:19:48.737Z,5.49
2019-04-11T06:22:19.819Z,5.52
2019-04-11T06:24:52.197Z,5.55
2019-04-11T06:27:30.387Z,5.57
2019-04-11T06:30:07.671Z,5.62
2019-04-11T06:32:54.399Z,5.69
2019-04-11T06:35:37.845Z,5.77
2019-04-11T06:38:25.039Z,5.87
2019-04-11T06:41:08.412Z,5.99
2019-04-11T06:43:45.657Z,6.13
2019-04-11T06:46:16.732Z,6.20
2019-04-11T06:49:00.228Z,6.22
2019-04-11T06:51:40.247Z,6.23
2019-04-11T06:54:28.631Z,6.31
2019-04-11T06:56:59.219Z,6.30
2019-04-11T06:59:34.457Z,6.38
2019-04-11T07:02:11.549Z,6.45
2019-04-11T07:04:39.864Z,6.56
2019-04-11T07:07:13.813Z,6.64
2019-04-11T07:09:47.494Z,6.75
2019-04-11T07:12:30.973Z,6.82
2019-04-11T07:15:02.570Z,6.83
2019-04-11T07:17:50.249Z,6.96
2019-04-11T07:20:21.310Z,7.09
2019-04-11T07:23:08.868Z,7.14
2019-04-11T07:25:58.155Z,7.20
2019-04-11T07:28:41.770Z,7.19
2019-04-11T07:31:30.206Z,7.14
2019-04-11T07:34:08.621Z,7.22
2019-04-11T07:36:57.948Z,7.37
2019-04-11T07:39:47.371Z,7.48
2019-04-11T07:42:28.296Z,7.71
2019-04-11T07:45:04.215Z,7.92
2019-04-11T07:47:35.364Z,8.07
2019-04-11T07:50:07.926Z,8.22
2019-04-11T07:52:56.086Z,8.36
2019-04-11T07:55:27.860Z,8.37
2019-04-11T07:58:15.405Z,8.34
2019-04-11T08:01:03.707Z,8.30
2019-04-11T08:03:49.715Z,8.35
2019-04-11T08:06:26.445Z,8.41
2019-04-11T08:09:00.525Z,8.25
2019-04-11T08:11:33.874Z,8.09
2019-04-11T08:14:06.373Z,8.06
2019-04-11T08:16:53.951Z,7.98
2019-04-11T08:19:38.622Z,7.98
2019-04-11T08:22:10.540Z,8.12
2019-04-11T08:24:54.026Z,8.02
2019-04-11T08:27:53.689Z,8.09
2019-04-11T08:30:14.904Z,8.13
2019-04-11T08:32:52.209Z,8.15
2019-04-11T08:35:33.342Z,8.05
2019-04-11T08:38:10.149Z,7.97
2019-04-11T08:40:45.187Z,8.02
2019-04-11T08:43:21.840Z,7.97
2019-04-11T08:46:02.512Z,8.07
2019-04-11T08:48:33.702Z,8.20
2019-04-11T08:51:08.663Z,8.20
2019-04-11T08:53:46.458Z,8.18
2019-04-11T08:56:18.854Z,8.35
2019-04-11T08:59:11.417Z,8.41
2019-04-11T09:01:42.287Z,8.55
2019-04-11T09:04:30.212Z,8.79
2019-04-11T09:07:01.070Z,9.01
2019-04-11T09:09:40.960Z,9.33
2019-04-11T09:12:12.283Z,9.71
2019-04-11T09:14:46.586Z,9.83
2019-04-11T09:17:21.499Z,9.98
2019-04-11T09:19:57.006Z,10.32
2019-04-11T09:22:31.219Z,10.73
2019-04-11T09:25:11.422Z,10.87
2019-04-11T09:27:46.807Z,10.87
2019-04-11T09:30:21.545Z,10.85
2019-04-11T09:33:12.829Z,10.70
2019-04-11T09:35:43.957Z,10.68
2019-04-11T09:38:19.089Z,10.69
2019-04-11T09:41:00.448Z,10.47
2019-04-11T09:43:31.902Z,10.28
2019-04-11T09:46:12.520Z,9.91
2019-04-11T09:48:44.396Z,9.71
2019-04-11T09:51:18.735Z,9.73
2019-04-11T09:54:10.208Z,9.82
2019-04-11T09:56:47.322Z,9.93
2019-04-11T09:59:31.378Z,9.85
2019-04-11T10:02:08.476Z,9.84
2019-04-11T10:04:39.622Z,9.77
2019-04-11T10:07:11.169Z,9.97
2019-04-11T10:09:46.262Z,9.89
2019-04-11T10:12:33.919Z,9.97
2019-04-11T10:15:05.129Z,10.13
2019-04-11T10:17:42.480Z,10.30
2019-04-11T10:20:16.819Z,10.57
2019-04-11T10:22:56.269Z,10.73
2019-04-11T10:25:30.072Z,10.79
2019-04-11T10:28:06.878Z,10.92
2019-04-11T10:30:53.965Z,10.76
2019-04-11T10:33:41.586Z,10.57
2019-04-11T10:36:12.727Z,10.70
2019-04-11T10:38:42.200Z,10.99
2019-04-11T10:41:30.580Z,11.21
2019-04-11T10:44:01.325Z,11.33
2019-04-11T10:46:41.774Z,11.45
2019-04-11T10:49:13.613Z,11.53
2019-04-11T10:51:45.649Z,11.58
2019-04-11T10:54:15.615Z,11.42
2019-04-11T10:56:55.956Z,11.37
2019-04-11T10:59:28.002Z,11.43
2019-04-11T11:02:00.173Z,11.46
2019-04-11T11:04:34.727Z,11.57
2019-04-11T11:07:06.862Z,11.68
2019-04-11T11:09:38.941Z,11.70
2019-04-11T11:12:21.058Z,11.66
2019-04-11T11:14:58.928Z,11.74
2019-04-11T11:17:55.941Z,11.76
2019-04-11T11:20:22.316Z,11.62
2019-04-11T11:22:56.040Z,11.45
2019-04-11T11:25:27.308Z,11.32
2019-04-11T11:27:57.871Z,11.26
2019-04-11T11:30:37.729Z,11.37
2019-04-11T11:33:09.959Z,11.35
2019-04-11T11:35:50.097Z,11.34
2019-04-11T11:38:24.295Z,11.09
2019-04-11T11:41:01.095Z,10.92
2019-04-11T11:43:32.987Z,10.71
2019-04-11T11:46:25.419Z,10.57
2019-04-11T11:48:54.537Z,10.51
2019-04-11T11:51:28.413Z,10.45
2019-04-11T11:54:11.530Z,10.36
2019-04-11T11:56:42.938Z,10.30
2019-04-11T11:59:15.504Z,10.25
2019-04-11T12:01:54.201Z,10.37
2019-04-11T12:04:42.223Z,10.15
2019-04-11T12:07:14.711Z,10.21
2019-04-11T12:09:58.499Z,10.17
2019-04-11T12:12:35.989Z,10.14
2019-04-11T12:15:28.371Z,10.17
2019-04-11T12:18:07.436Z,9.95
2019-04-11T12:20:58.762Z,9.80
2019-04-11T12:23:54.503Z,9.92
2019-04-11T12:26:16.876Z,10.04
2019-04-11T12:28:52.230Z,9.98
2019-04-11T12:31:31.171Z,9.73
2019-04-11T12:33:59.761Z,9.79
2019-04-11T12:36:31.009Z,9.87
2019-04-11T12:39:14.100Z,9.90
2019-04-11T12:41:57.498Z,9.84
2019-04-11T12:44:31.636Z,9.85
2019-04-11T12:47:21.012Z,9.78
2019-04-11T12:49:53.021Z,9.87
2019-04-11T12:52:39.528Z,9.94
2019-04-11T12:55:16.433Z,10.06
2019-04-11T12:57:56.746Z,10.22
2019-04-11T13:00:27.818Z,10.35
2019-04-11T13:03:02.232Z,10.46
2019-04-11T13:05:45.416Z,10.56
2019-04-11T13:08:19.670Z,10.63
2019-04-11T13:10:49.206Z,10.72
2019-04-11T13:13:20.313Z,10.69
2019-04-11T13:15:54.546Z,10.65
2019-04-11T13:18:41.507Z,10.48
2019-04-11T13:21:12.982Z,10.46
2019-04-11T13:23:44.661Z,10.42
2019-04-11T13:26:21.756Z,10.09
2019-04-11T13:29:07.794Z,9.97
2019-04-11T13:31:54.186Z,10.11
2019-04-11T13:34:25.298Z,10.31
2019-04-11T13:37:12.845Z,10.35
2019-04-11T13:39:43.939Z,10.20
2019-04-11T13:42:18.017Z,10.15
2019-04-11T13:44:47.444Z,10.07
2019-04-11T13:47:18.547Z,10.07
2019-04-11T13:49:49.679Z,10.19
2019-04-11T13:52:23.517Z,10.14
2019-04-11T13:55:08.707Z,10.03
2019-04-11T13:57:45.656Z,9.87
2019-04-11T14:00:33.659Z,10.06
2019-04-11T14:03:22.613Z,10.06
2019-04-11T14:05:52.045Z,10.16
2019-04-11T14:08:28.859Z,10.21
2019-04-11T14:11:05.856Z,10.22
2019-04-11T14:13:43.071Z,10.21
2019-04-11T14:16:14.241Z,10.25
2019-04-11T14:18:45.379Z,10.23
2019-04-11T14:21:25.261Z,10.21
2019-04-11T14:24:12.387Z,10.33
2019-04-11T14:26:47.217Z,10.30
2019-04-11T14:29:18.345Z,10.27
2019-04-11T14:31:58.967Z,10.18
2019-04-11T14:34:30.099Z,9.99
2019-04-11T14:37:01.202Z,9.68
2019-04-11T14:39:34.693Z,9.65
2019-04-11T14:42:22.436Z,9.54
2019-04-11T14:44:53.849Z,9.48
2019-04-11T14:47:39.929Z,9.59
2019-04-11T14:50:13.726Z,9.60
2019-04-11T14:53:01.312Z,9.60
2019-04-11T14:55:31.081Z,9.62
2019-04-11T14:58:17.521Z,9.56
2019-04-11T15:00:47.379Z,9.56
2019-04-11T15:03:34.724Z,9.61
2019-04-11T15:06:14.615Z,9.65
2019-04-11T15:09:00.612Z,9.67
2019-04-11T15:11:33.256Z,9.78
2019-04-11T15:14:10.242Z,9.66
2019-04-11T15:16:41.330Z,9.54
2019-04-11T15:19:11.392Z,9.47
2019-04-11T15:21:42.489Z,9.40
2019-04-11T15:24:12.371Z,9.15
2019-04-11T15:26:52.371Z,8.97
2019-04-11T15:29:23.459Z,8.88
2019-04-11T15:32:00.558Z,8.88
2019-04-11T15:34:35.957Z,8.82
2019-04-11T15:37:19.396Z,8.75
2019-04-11T15:40:02.501Z,8.69
2019-04-11T15:42:51.025Z,8.56
2019-04-11T15:45:37.224Z,8.45
2019-04-11T15:48:14.094Z,8.35
2019-04-11T15:51:06.476Z,8.25
2019-04-11T15:53:48.795Z,8.19
2019-04-11T15:56:40.904Z,8.20
2019-04-11T15:59:08.739Z,8.14
2019-04-11T16:01:56.092Z,8.19
2019-04-11T16:04:29.648Z,8.24
2019-04-11T16:07:08.177Z,8.31
2019-04-11T16:09:39.878Z,8.27
2019-04-11T16:12:19.921Z,8.29
2019-04-11T16:14:51.414Z,8.31
2019-04-11T16:17:28.543Z,8.34
2019-04-11T16:19:59.505Z,8.38
2019-04-11T16:22:45.404Z,8.39
2019-04-11T16:25:16.698Z,8.40
2019-04-11T16:28:06.874Z,8.42
2019-04-11T16:30:39.554Z,8.40
2019-04-11T16:33:09.398Z,8.39
2019-04-11T16:35:46.205Z,8.40
2019-04-11T16:38:19.114Z,8.33
2019-04-11T16:41:06.555Z,8.28
2019-04-11T16:46:36.142Z,8.16
2019-04-11T16:49:05.561Z,8.11
2019-04-11T16:51:35.038Z,8.09
2019-04-11T16:54:04.591Z,7.93
2019-04-11T16:56:34.047Z,7.84
2019-04-11T16:59:03.575Z,7.79
2019-04-11T17:01:33.029Z,7.65
2019-04-11T17:04:02.447Z,7.54
2019-04-11T17:06:36.711Z,7.46
2019-04-11T17:09:12.084Z,7.41
2019-04-11T17:11:41.535Z,7.44
2019-04-11T17:14:11.984Z,7.36
2019-04-11T17:16:41.610Z,7.41
2019-04-11T17:19:11.793Z,7.43
2019-04-11T17:21:43.456Z,7.40
2019-04-11T17:24:12.418Z,7.42
2019-04-11T17:26:41.895Z,7.43
2019-04-11T17:29:11.350Z,7.41
2019-04-11T17:31:40.819Z,7.41
2019-04-11T17:34:10.231Z,7.35
2019-04-11T17:36:39.694Z,7.34
2019-04-11T17:39:09.322Z,7.29
2019-04-11T17:41:41.775Z,7.27
2019-04-11T17:44:10.988Z,7.28
2019-04-11T17:46:42.166Z,7.28
2019-04-11T17:49:11.636Z,7.29
2019-04-11T17:51:42.816Z,7.27
2019-04-11T17:54:12.222Z,7.26
2019-04-11T17:56:41.668Z,7.26
2019-04-11T17:59:12.223Z,7.24
2019-04-11T18:01:41.720Z,7.22
2019-04-11T18:04:13.600Z,7.17
2019-04-11T18:06:46.949Z,7.14
2019-04-11T18:09:15.208Z,7.12
2019-04-11T18:11:44.653Z,7.09
2019-04-11T18:14:14.080Z,7.04
2019-04-11T18:16:43.559Z,7.00
2019-04-11T18:19:12.978Z,6.93
2019-04-11T18:21:42.427Z,6.92
2019-04-11T18:24:11.852Z,6.94
2019-04-11T18:26:41.306Z,6.95
2019-04-11T18:29:10.801Z,6.97
2019-04-11T18:31:40.253Z,6.97
2019-04-11T18:34:09.742Z,6.93
2019-04-11T18:36:39.281Z,6.81
2019-04-11T18:39:08.749Z,6.77
2019-04-11T18:41:38.734Z,6.77
2019-04-11T18:44:08.255Z,6.77
2019-04-11T18:46:37.720Z,6.77
2019-04-11T18:49:07.184Z,6.80
2019-04-11T18:51:37.169Z,6.80
2019-04-11T18:54:07.824Z,6.78
2019-04-11T18:56:38.197Z,6.75
2019-04-11T18:59:07.900Z,6.73
2019-04-11T19:01:39.991Z,6.65
2019-04-11T19:04:11.759Z,6.61
2019-04-11T19:09:13.838Z,6.59
2019-04-11T19:11:41.458Z,6.54
2019-04-11T19:14:11.214Z,6.49
2019-04-11T19:16:40.728Z,6.42
2019-04-11T19:19:10.254Z,6.35
2019-04-11T19:21:39.675Z,6.29
2019-04-11T19:24:12.830Z,6.26
2019-04-11T19:26:40.347Z,6.18
2019-04-11T19:29:09.798Z,6.13
2019-04-11T19:31:39.298Z,6.11
2019-04-11T19:34:09.007Z,6.07
2019-04-11T19:36:42.107Z,6.04
2019-04-11T19:39:13.475Z,6.07
2019-04-11T19:41:42.138Z,6.13
2019-04-11T19:44:11.612Z,6.16
2019-04-11T19:46:41.139Z,6.11
2019-04-11T19:49:10.603Z,6.06
2019-04-11T19:51:40.130Z,6.02
2019-04-11T19:54:09.551Z,6.01
2019-04-11T19:56:40.644Z,5.98
2019-04-11T19:59:10.105Z,5.92
2019-04-11T20:01:39.521Z,5.90
2019-04-11T20:04:09.039Z,5.90
2019-04-11T20:06:38.562Z,5.90
2019-04-11T20:09:08.761Z,5.87
2019-04-11T20:11:39.787Z,5.90
2019-04-11T20:14:09.236Z,5.93
2019-04-11T20:16:41.977Z,5.98
2019-04-11T20:19:09.867Z,6.02
2019-04-11T20:21:39.348Z,5.99
2019-04-11T20:24:08.797Z,5.98
2019-04-11T20:26:38.219Z,5.98
2019-04-11T20:29:07.665Z,5.95
2019-04-11T20:31:37.082Z,5.88
2019-04-11T20:34:08.029Z,5.88
2019-04-11T20:36:40.835Z,5.85
2019-04-11T20:39:10.091Z,5.84
2019-04-11T20:41:39.504Z,5.83
2019-04-11T20:44:09.013Z,5.85
2019-04-11T20:46:38.471Z,5.86
2019-04-11T20:49:07.892Z,5.85
2019-04-11T20:51:37.659Z,5.82
2019-04-11T20:54:07.896Z,5.79
2019-04-11T20:56:39.936Z,5.78
2019-04-11T20:59:10.322Z,5.78
2019-04-11T21:01:39.846Z,5.79
2019-04-11T21:04:09.298Z,5.83
2019-04-11T21:06:38.751Z,5.87
2019-04-11T21:09:10.284Z,5.83
2019-04-11T21:11:40.055Z,5.87
2019-04-11T21:14:09.484Z,5.85
2019-04-11T21:16:39.007Z,5.84
2019-04-11T21:19:08.418Z,5.83
2019-04-11T21:21:37.875Z,5.77
2019-04-11T21:24:07.321Z,5.79
2019-04-11T21:26:36.750Z,5.81
2019-04-11T21:29:06.160Z,5.81
2019-04-11T21:31:35.617Z,5.81
2019-04-11T21:34:05.035Z,5.83
2019-04-11T21:36:34.507Z,5.82
2019-04-11T21:39:05.573Z,5.80
2019-04-11T21:41:36.890Z,5.80
2019-04-11T21:44:07.039Z,5.79
2019-04-11T21:46:38.177Z,5.77
2019-04-11T21:49:08.725Z,5.77
2019-04-11T21:51:41.444Z,5.75
2019-04-11T21:54:09.298Z,5.73
2019-04-11T21:56:38.805Z,5.71
2019-04-11T21:59:08.331Z,5.73
2019-04-11T22:01:41.100Z,5.70
2019-04-11T22:04:10.728Z,5.64
2019-04-11T22:06:40.214Z,5.63
2019-04-11T22:09:11.127Z,5.61
2019-04-11T22:11:40.664Z,5.61
2019-04-11T22:14:11.265Z,5.63
2019-04-11T22:16:44.255Z,5.63
2019-04-11T22:19:14.244Z,5.64
2019-04-11T22:21:46.005Z,5.69
2019-04-11T22:24:15.628Z,5.61
2019-04-11T22:26:45.075Z,5.55
2019-04-11T22:29:14.494Z,5.56
2019-04-11T22:31:44.339Z,5.56
2019-04-11T22:34:28.811Z,5.58
2019-04-11T22:37:00.500Z,5.56
2019-04-11T22:39:31.459Z,5.54
2019-04-11T22:42:01.300Z,5.53
2019-04-11T22:44:30.718Z,5.50
2019-04-11T22:47:00.146Z,5.50
2019-04-11T22:49:29.596Z,5.44
2019-04-11T22:51:59.118Z,5.47
2019-04-11T22:54:28.540Z,5.48
2019-04-11T22:56:58.023Z,5.50
2019-04-11T22:59:27.475Z,5.48
2019-04-11T23:01:58.601Z,5.46
2019-04-11T23:04:28.540Z,5.48
2019-04-11T23:06:57.990Z,5.47
2019-04-11T23:09:27.415Z,5.45
2019-04-11T23:11:56.861Z,5.36
2019-04-11T23:14:26.280Z,5.34
2019-04-11T23:16:55.798Z,5.36
2019-04-11T23:19:25.224Z,5.34
2019-04-11T23:21:54.689Z,5.28
2019-04-11T23:24:24.179Z,5.23
2019-04-11T23:26:53.637Z,5.20
2019-04-11T23:29:23.065Z,5.17
2019-04-11T23:31:52.545Z,5.15
2019-04-11T23:34:22.681Z,5.15
2019-04-11T23:36:52.193Z,5.13
2019-04-11T23:39:22.933Z,5.15
2019-04-11T23:41:52.950Z,5.14
2019-04-11T23:44:22.404Z,5.11
2019-04-11T23:46:52.619Z,5.04
2019-04-11T23:49:24.869Z,5.05
2019-04-11T23:51:55.667Z,5.10
2019-04-11T23:54:24.526Z,5.14
2019-04-11T23:56:54.072Z,5.16
2019-04-11T23:59:23.485Z,5.18
